createdAt,value
2022-11-29T00:01:20.963Z,101427.75
2022-11-29T00:03:47.623Z,101424.44
2022-11-29T00:06:19.599Z,101434.47
2022-11-29T00:08:46.802Z,101428.19
2022-11-29T00:11:37.218Z,101434.66
2022-11-29T00:14:03.955Z,101418.34
2022-11-29T00:16:30.681Z,101420.47
2022-11-29T00:18:57.224Z,101429.03
2022-11-29T00:21:23.748Z,101422.97
2022-11-29T00:23:50.287Z,101431.13
2022-11-29T00:26:16.855Z,101435.09
2022-11-29T00:28:43.439Z,101431.53
2022-11-29T00:31:19.649Z,101433.22
2022-11-29T00:33:46.631Z,101428.59
2022-11-29T00:36:14.057Z,101438.84
2022-11-29T00:38:41.300Z,101446.41
2022-11-29T00:41:09.169Z,101439.69
2022-11-29T00:43:36.154Z,101441.16
2022-11-29T00:46:03.884Z,101446.59
2022-11-29T00:48:31.284Z,101447.88
2022-11-29T00:50:58.164Z,101437.59
2022-11-29T00:53:25.060Z,101446.59
2022-11-29T00:55:52.919Z,101443.69
2022-11-29T00:58:20.215Z,101453.72
2022-11-29T01:00:47.596Z,101448.91
2022-11-29T01:03:15.104Z,101453.50
2022-11-29T01:05:42.931Z,101445.13
2022-11-29T01:08:10.830Z,101443.25
2022-11-29T01:10:37.352Z,101447.44
2022-11-29T01:13:03.898Z,101443.47
2022-11-29T01:15:30.455Z,101443.88
2022-11-29T01:17:56.926Z,101435.94
2022-11-29T01:20:23.447Z,101447.03
2022-11-29T01:22:50.063Z,101453.72
2022-11-29T01:25:16.839Z,101455.59
2022-11-29T01:27:43.310Z,101449.50
2022-11-29T01:30:10.341Z,101451.63
2022-11-29T01:32:37.104Z,101448.25
2022-11-29T01:35:04.824Z,101448.25
2022-11-29T01:37:32.023Z,101454.13
2022-11-29T01:39:58.575Z,101449.09
2022-11-29T01:42:25.260Z,101449.09
2022-11-29T01:45:25.526Z,101460.81
2022-11-29T01:47:56.787Z,101459.31
2022-11-29T01:50:23.773Z,101452.84
2022-11-29T01:52:50.630Z,101464.13
2022-11-29T01:55:18.286Z,101461.19
2022-11-29T01:57:45.187Z,101456.78
2022-11-29T02:00:15.026Z,101469.34
2022-11-29T02:02:50.786Z,101472.06
2022-11-29T02:05:19.362Z,101483.34
2022-11-29T02:07:51.040Z,101483.56
2022-11-29T02:10:18.059Z,101488.38
2022-11-29T02:13:33.854Z,101486.69
2022-11-29T02:16:13.042Z,101492.53
2022-11-29T02:18:54.051Z,101496.72
2022-11-29T02:21:58.968Z,101491.06
2022-11-29T02:25:00.954Z,101491.25
2022-11-29T02:27:43.027Z,101498.56
2022-11-29T02:30:16.823Z,101492.97
2022-11-29T02:32:58.509Z,101498.94
2022-11-29T02:35:52.362Z,101500.59
2022-11-29T02:38:25.698Z,101498.09
2022-11-29T02:41:21.835Z,101492.88
2022-11-29T02:44:07.089Z,101499.50
2022-11-29T02:47:14.780Z,101505.81
2022-11-29T02:50:08.838Z,101504.16
2022-11-29T02:52:47.811Z,101496.19
2022-11-29T02:55:47.052Z,101505.63
2022-11-29T02:58:47.511Z,101501.88
2022-11-29T03:01:24.025Z,101502.50
2022-11-29T03:04:14.070Z,101515.06
2022-11-29T03:07:01.634Z,101513.78
2022-11-29T03:09:54.102Z,101524.25
2022-11-29T03:12:49.841Z,101521.53
2022-11-29T03:15:28.704Z,101519.63
2022-11-29T03:18:03.481Z,101517.50
2022-11-29T03:20:51.664Z,101526.09
2022-11-29T03:23:34.266Z,101530.50
2022-11-29T03:26:24.408Z,101532.13
2022-11-29T03:29:07.290Z,101531.06
2022-11-29T03:31:49.362Z,101523.34
2022-11-29T03:34:15.708Z,101537.81
2022-11-29T03:36:51.301Z,101532.53
2022-11-29T03:39:24.581Z,101544.63
2022-11-29T03:41:58.551Z,101540.41
2022-11-29T03:44:28.361Z,101555.28
2022-11-29T03:47:03.375Z,101555.06
2022-11-29T03:49:44.969Z,101555.50
2022-11-29T03:52:35.600Z,101553.84
2022-11-29T03:55:11.024Z,101557.78
2022-11-29T03:57:53.317Z,101570.22
2022-11-29T04:00:20.523Z,101561.56
2022-11-29T04:03:17.083Z,101571.84
2022-11-29T04:06:02.268Z,101576.66
2022-11-29T04:08:59.864Z,101573.25
2022-11-29T04:11:58.674Z,101569.88
2022-11-29T04:14:47.438Z,101570.94
2022-11-29T04:17:41.343Z,101569.50
2022-11-29T04:20:26.160Z,101573.50
2022-11-29T04:23:37.549Z,101574.56
2022-11-29T04:26:30.902Z,101582.66
2022-11-29T04:29:33.950Z,101577.03
2022-11-29T04:32:21.321Z,101585.38
2022-11-29T04:35:03.464Z,101590.78
2022-11-29T04:37:56.271Z,101595.41
2022-11-29T04:41:00.394Z,101588.28
2022-11-29T04:44:06.198Z,101590.81
2022-11-29T04:46:59.929Z,101600.66
2022-11-29T04:49:29.239Z,101605.81
2022-11-29T04:52:41.947Z,101615.25
2022-11-29T04:55:35.396Z,101602.88
2022-11-29T04:58:28.439Z,101611.69
2022-11-29T05:01:14.946Z,101608.13
2022-11-29T05:04:00.237Z,101605.25
2022-11-29T05:06:42.571Z,101607.88
2022-11-29T05:09:35.805Z,101620.16
2022-11-29T05:12:18.733Z,101626.22
2022-11-29T05:15:17.493Z,101628.97
2022-11-29T05:18:19.511Z,101633.28
2022-11-29T05:21:24.183Z,101645.66
2022-11-29T05:24:06.802Z,101644.75
2022-11-29T05:26:50.249Z,101643.91
2022-11-29T05:29:26.067Z,101645.00
2022-11-29T05:32:28.540Z,101647.53
2022-11-29T05:35:13.675Z,101658.16
2022-11-29T05:37:56.773Z,101651.44
2022-11-29T05:40:41.160Z,101654.66
2022-11-29T05:43:46.609Z,101663.53
2022-11-29T05:46:29.049Z,101653.63
2022-11-29T05:49:13.950Z,101667.09
2022-11-29T05:51:50.289Z,101670.44
2022-11-29T05:54:29.404Z,101671.06
2022-11-29T05:57:23.057Z,101677.97
2022-11-29T05:59:51.182Z,101674.41
2022-11-29T06:02:26.557Z,101677.56
2022-11-29T06:05:03.581Z,101673.78
2022-11-29T06:07:40.800Z,101671.25
2022-11-29T06:10:17.626Z,101686.38
2022-11-29T06:13:36.485Z,101693.31
2022-11-29T06:16:24.900Z,101702.91
2022-11-29T06:18:57.356Z,101696.84
2022-11-29T06:22:05.727Z,101698.75
2022-11-29T06:24:51.762Z,101697.28
2022-11-29T06:27:32.289Z,101706.91
2022-11-29T06:30:15.806Z,101699.72
2022-11-29T06:33:01.106Z,101717.13
2022-11-29T06:35:47.095Z,101718.38
2022-11-29T06:38:23.463Z,101728.00
2022-11-29T06:40:51.019Z,101730.66
2022-11-29T06:43:17.966Z,101731.47
2022-11-29T06:45:50.135Z,101735.59
2022-11-29T06:48:25.590Z,101743.38
2022-11-29T06:51:00.155Z,101743.56
2022-11-29T06:53:47.966Z,101754.25
2022-11-29T06:56:33.607Z,101754.25
2022-11-29T06:59:17.823Z,101756.94
2022-11-29T07:02:22.456Z,101761.09
2022-11-29T07:05:19.144Z,101759.44
2022-11-29T07:07:48.327Z,101751.88
2022-11-29T07:10:18.629Z,101761.31
2022-11-29T07:12:47.674Z,101766.06
2022-11-29T07:15:16.946Z,101767.72
2022-11-29T07:18:09.409Z,101776.59
2022-11-29T07:20:45.598Z,101780.09
2022-11-29T07:23:36.010Z,101782.97
2022-11-29T07:26:15.244Z,101782.34
2022-11-29T07:29:26.218Z,101784.00
2022-11-29T07:32:03.442Z,101790.66
2022-11-29T07:34:43.625Z,101791.34
2022-11-29T07:37:28.889Z,101801.88
2022-11-29T07:40:05.764Z,101800.88
2022-11-29T07:43:08.751Z,101796.56
2022-11-29T07:45:38.319Z,101793.38
2022-11-29T07:48:05.546Z,101801.53
2022-11-29T07:50:32.074Z,101801.88
2022-11-29T07:52:59.930Z,101804.41
2022-11-29T07:55:27.526Z,101812.38
2022-11-29T07:57:54.122Z,101809.84
2022-11-29T08:00:21.707Z,101815.09
2022-11-29T08:02:49.721Z,101816.56
2022-11-29T08:05:16.503Z,101806.56
2022-11-29T08:07:43.576Z,101807.13
2022-11-29T08:10:13.918Z,101815.75
2022-11-29T08:12:45.142Z,101814.47
2022-11-29T08:15:12.430Z,101806.94
2022-11-29T08:17:39.444Z,101808.63
2022-11-29T08:20:07.298Z,101814.47
2022-11-29T08:22:33.807Z,101822.22
2022-11-29T08:25:00.407Z,101817.81
2022-11-29T08:27:27.549Z,101815.94
2022-11-29T08:29:54.086Z,101810.34
2022-11-29T08:32:20.647Z,101811.81
2022-11-29T08:34:47.401Z,101812.28
2022-11-29T08:37:14.843Z,101825.19
2022-11-29T08:39:41.493Z,101822.47
2022-11-29T08:42:08.081Z,101817.63
2022-11-29T08:44:34.691Z,101832.50
2022-11-29T08:47:19.689Z,101825.84
2022-11-29T08:50:04.098Z,101832.13
2022-11-29T08:52:55.457Z,101837.53
2022-11-29T08:55:24.875Z,101849.25
2022-11-29T08:57:51.959Z,101846.31
2022-11-29T09:00:21.123Z,101847.84
2022-11-29T09:02:48.245Z,101851.41
2022-11-29T09:05:15.791Z,101854.75
2022-11-29T09:07:42.905Z,101851.84
2022-11-29T09:10:11.240Z,101856.91
2022-11-29T09:12:39.314Z,101857.91
2022-11-29T09:15:09.006Z,101868.03
2022-11-29T09:17:35.500Z,101864.09
2022-11-29T09:20:02.187Z,101866.59
2022-11-29T09:22:28.711Z,101867.44
2022-11-29T09:24:55.234Z,101873.31
2022-11-29T09:27:21.738Z,101875.00
2022-11-29T09:29:48.266Z,101880.06
2022-11-29T09:32:14.734Z,101886.53
2022-11-29T09:34:42.237Z,101880.44
2022-11-29T09:37:08.967Z,101889.25
2022-11-29T09:39:35.428Z,101894.09
2022-11-29T09:42:21.302Z,101900.66
2022-11-29T09:44:59.266Z,101897.09
2022-11-29T09:47:33.051Z,101909.44
2022-11-29T09:50:27.169Z,101915.53
2022-11-29T09:52:59.505Z,101914.69
2022-11-29T09:55:59.412Z,101908.69
2022-11-29T09:58:30.628Z,101916.16
2022-11-29T10:01:02.478Z,101912.44
2022-11-29T10:03:31.859Z,101918.78
2022-11-29T10:06:17.553Z,101917.28
2022-11-29T10:08:49.927Z,101912.03
2022-11-29T10:11:24.114Z,101911.41
2022-11-29T10:14:13.764Z,101915.88
2022-11-29T10:16:59.430Z,101914.38
2022-11-29T10:19:38.219Z,101920.63
2022-11-29T10:22:27.363Z,101914.84
2022-11-29T10:24:59.057Z,101919.44
2022-11-29T10:27:29.411Z,101913.16
2022-11-29T10:29:58.057Z,101898.34
2022-11-29T10:32:25.721Z,101897.69
2022-11-29T10:34:52.254Z,101885.72
2022-11-29T10:37:23.640Z,101910.91
2022-11-29T10:39:58.664Z,101910.44
2022-11-29T10:42:46.972Z,101912.31
2022-11-29T10:45:20.745Z,101915.59
2022-11-29T10:47:49.415Z,101904.34
2022-11-29T10:50:31.244Z,101914.63
2022-11-29T10:53:09.484Z,101916.72
2022-11-29T10:55:45.669Z,101916.31
2022-11-29T10:58:16.427Z,101920.47
2022-11-29T11:01:07.072Z,101919.88
2022-11-29T11:03:53.552Z,101919.72
2022-11-29T11:06:26.722Z,101920.34
2022-11-29T11:08:55.732Z,101914.72
2022-11-29T11:11:25.022Z,101927.72
2022-11-29T11:14:03.656Z,101916.84
2022-11-29T11:16:35.580Z,101913.75
2022-11-29T11:19:30.574Z,101918.97
2022-11-29T11:22:01.856Z,101912.06
2022-11-29T11:24:32.309Z,101917.69
2022-11-29T11:27:00.183Z,101909.53
2022-11-29T11:29:51.876Z,101926.97
2022-11-29T11:32:20.001Z,101924.63
2022-11-29T11:35:00.736Z,101932.41
2022-11-29T11:37:32.269Z,101931.38
2022-11-29T11:40:17.932Z,101926.13
2022-11-29T11:42:45.004Z,101929.00
2022-11-29T11:45:11.420Z,101940.16
2022-11-29T11:47:47.826Z,101939.31
2022-11-29T11:50:40.264Z,101936.13
2022-11-29T11:53:18.161Z,101945.41
2022-11-29T11:56:13.371Z,101944.16
2022-11-29T11:58:51.709Z,101939.00
2022-11-29T12:01:30.815Z,101939.00
2022-11-29T12:04:02.869Z,101942.94
2022-11-29T12:06:55.719Z,101941.72
2022-11-29T12:09:42.022Z,101945.47
2022-11-29T12:12:29.850Z,101944.03
2022-11-29T12:15:07.046Z,101952.19
2022-11-29T12:17:54.881Z,101955.56
2022-11-29T12:20:28.225Z,101961.00
2022-11-29T12:23:12.659Z,101952.84
2022-11-29T12:26:02.897Z,101967.28
2022-11-29T12:28:35.038Z,101962.50
2022-11-29T12:31:13.927Z,101973.56
2022-11-29T12:33:57.823Z,101983.84
2022-11-29T12:36:49.767Z,101984.03
2022-11-29T12:39:30.436Z,101987.44
2022-11-29T12:42:15.919Z,101991.16
2022-11-29T12:44:50.826Z,101987.03
2022-11-29T12:47:55.924Z,101999.59
2022-11-29T12:51:01.702Z,102005.88
2022-11-29T12:53:59.027Z,102007.53
2022-11-29T12:56:37.048Z,102002.09
2022-11-29T12:59:21.807Z,102010.72
2022-11-29T13:01:51.260Z,101998.81
2022-11-29T13:04:29.645Z,102001.34
2022-11-29T13:07:21.144Z,102002.84
2022-11-29T13:09:55.216Z,101998.19
2022-11-29T13:12:41.586Z,101999.84
2022-11-29T13:15:41.661Z,102006.41
2022-11-29T13:18:40.575Z,102002.19
2022-11-29T13:21:32.815Z,102011.38
2022-11-29T13:24:13.862Z,102003.94
2022-11-29T13:26:41.867Z,102006.97
2022-11-29T13:29:15.479Z,102014.72
2022-11-29T13:31:42.896Z,102008.47
2022-11-29T13:34:13.802Z,102015.22
2022-11-29T13:36:42.986Z,102007.25
2022-11-29T13:39:15.384Z,102019.59
2022-11-29T13:41:50.758Z,102022.53
2022-11-29T13:44:32.269Z,102020.25
2022-11-29T13:47:10.779Z,102012.69
2022-11-29T13:50:03.598Z,102018.19
2022-11-29T13:52:44.677Z,102024.66
2022-11-29T13:55:23.367Z,102020.72
2022-11-29T13:58:15.569Z,102020.66
2022-11-29T14:00:42.593Z,102020.72
2022-11-29T14:03:21.366Z,102024.06
2022-11-29T14:05:50.632Z,102027.84
2022-11-29T14:08:55.181Z,102014.03
2022-11-29T14:11:36.118Z,102023.72
2022-11-29T14:14:08.533Z,102015.28
2022-11-29T14:16:44.498Z,102023.03
2022-11-29T14:19:33.826Z,102029.97
2022-11-29T14:22:06.648Z,102027.47
2022-11-29T14:24:33.308Z,102022.66
2022-11-29T14:27:14.565Z,102036.25
2022-11-29T14:29:49.984Z,102023.31
2022-11-29T14:32:45.919Z,102018.25
2022-11-29T14:35:13.016Z,102023.31
2022-11-29T14:37:56.851Z,102028.31
2022-11-29T14:40:23.255Z,102020.59
2022-11-29T14:42:50.968Z,102032.50
2022-11-29T14:45:30.831Z,102031.88
2022-11-29T14:47:58.071Z,102028.75
2022-11-29T14:50:37.250Z,102033.78
2022-11-29T14:53:06.846Z,102040.25
2022-11-29T14:55:38.520Z,102035.22
2022-11-29T14:58:16.344Z,102028.47
2022-11-29T15:00:48.870Z,102038.78
2022-11-29T15:03:25.041Z,102042.97
2022-11-29T15:06:09.810Z,102037.38
2022-11-29T15:08:57.295Z,102038.22
2022-11-29T15:11:57.409Z,102033.78
2022-11-29T15:14:52.742Z,102033.41
2022-11-29T15:17:38.602Z,102033.78
2022-11-29T15:20:42.427Z,102036.97
2022-11-29T15:23:15.156Z,102049.72
2022-11-29T15:25:52.334Z,102050.56
2022-11-29T15:28:24.982Z,102045.13
2022-11-29T15:31:03.838Z,102052.25
2022-11-29T15:33:30.886Z,102041.97
2022-11-29T15:36:05.501Z,102055.16
2022-11-29T15:38:42.769Z,102053.47
2022-11-29T15:41:29.514Z,102050.56
2022-11-29T15:44:04.548Z,102051.59
2022-11-29T15:46:33.673Z,102046.38
2022-11-29T15:49:26.468Z,102056.84
2022-11-29T15:51:58.088Z,102057.44
2022-11-29T15:54:35.799Z,102061.63
2022-11-29T15:57:24.587Z,102060.16
2022-11-29T15:59:58.966Z,102069.34
2022-11-29T16:02:32.048Z,102067.28
2022-11-29T16:05:03.291Z,102065.16
2022-11-29T16:07:32.592Z,102072.06
2022-11-29T16:10:10.926Z,102078.34
2022-11-29T16:12:53.771Z,102075.63
2022-11-29T16:15:29.737Z,102076.66
2022-11-29T16:17:56.345Z,102066.84
2022-11-29T16:20:25.024Z,102076.88
2022-11-29T16:23:14.091Z,102079.38
2022-11-29T16:26:01.879Z,102071.88
2022-11-29T16:28:36.472Z,102078.56
2022-11-29T16:31:04.862Z,102074.34
2022-11-29T16:33:32.085Z,102074.34
2022-11-29T16:36:22.910Z,102084.81
2022-11-29T16:39:07.832Z,102079.78
2022-11-29T16:41:38.610Z,102078.94
2022-11-29T16:44:15.674Z,102084.38
2022-11-29T16:46:42.256Z,102080.84
2022-11-29T16:49:33.302Z,102085.03
2022-11-29T16:52:00.553Z,102078.13
2022-11-29T16:54:33.943Z,102086.28
2022-11-29T16:57:05.145Z,102081.84
2022-11-29T16:59:32.497Z,102086.06
2022-11-29T17:01:59.363Z,102090.66
2022-11-29T17:04:26.406Z,102086.91
2022-11-29T17:06:54.702Z,102086.28
2022-11-29T17:09:26.764Z,102082.25
2022-11-29T17:11:54.437Z,102084.38
2022-11-29T17:14:21.149Z,102081.47
2022-11-29T17:16:49.407Z,102089.63
2022-11-29T17:19:16.485Z,102090.03
2022-11-29T17:21:43.106Z,102088.16
2022-11-29T17:24:12.179Z,102091.03
2022-11-29T17:26:38.989Z,102095.47
2022-11-29T17:29:05.614Z,102092.75
2022-11-29T17:31:32.421Z,102081.00
2022-11-29T17:34:00.642Z,102092.75
2022-11-29T17:36:27.601Z,102097.16
2022-11-29T17:38:54.353Z,102091.72
2022-11-29T17:41:23.543Z,102091.91
2022-11-29T17:43:51.318Z,102090.19
2022-11-29T17:46:32.105Z,102103.63
2022-11-29T17:48:59.893Z,102101.09
2022-11-29T17:51:51.059Z,102105.03
2022-11-29T17:54:13.322Z,102103.06
2022-11-29T17:56:39.809Z,102108.34
2022-11-29T17:59:06.339Z,102098.69
2022-11-29T18:01:35.622Z,102113.78
2022-11-29T18:04:04.832Z,102117.50
2022-11-29T18:06:35.684Z,102121.47
2022-11-29T18:09:03.788Z,102123.34
2022-11-29T18:11:46.800Z,102132.16
2022-11-29T18:14:19.758Z,102131.69
2022-11-29T18:16:46.512Z,102131.84
2022-11-29T18:19:16.370Z,102129.81
2022-11-29T18:21:43.419Z,102135.47
2022-11-29T18:24:10.093Z,102136.75
2022-11-29T18:26:38.212Z,102143.06
2022-11-29T18:29:06.361Z,102143.63
2022-11-29T18:31:35.146Z,102146.50
2022-11-29T18:34:03.483Z,102136.47
2022-11-29T18:36:33.198Z,102141.47
2022-11-29T18:39:02.285Z,102147.53
2022-11-29T18:41:30.223Z,102152.34
2022-11-29T18:44:11.361Z,102145.41
2022-11-29T18:46:40.344Z,102148.31
2022-11-29T18:49:08.741Z,102150.56
2022-11-29T18:51:36.974Z,102150.56
2022-11-29T18:54:04.137Z,102150.09
2022-11-29T18:56:32.755Z,102158.44
2022-11-29T18:59:01.087Z,102149.81
2022-11-29T19:01:29.962Z,102155.81
2022-11-29T19:03:59.449Z,102167.38
2022-11-29T19:06:32.831Z,102170.34
2022-11-29T19:09:05.189Z,102168.56
2022-11-29T19:11:32.951Z,102166.06
2022-11-29T19:14:03.151Z,102164.75
2022-11-29T19:16:32.298Z,102162.88
2022-11-29T19:19:00.641Z,102163.97
2022-11-29T19:21:29.655Z,102175.06
2022-11-29T19:23:58.395Z,102170.81
2022-11-29T19:26:27.485Z,102176.25
2022-11-29T19:28:54.671Z,102178.25
2022-11-29T19:31:24.826Z,102178.78
2022-11-29T19:33:52.651Z,102172.03
2022-11-29T19:36:28.602Z,102169.16
2022-11-29T19:38:56.118Z,102174.94
2022-11-29T19:41:25.821Z,102178.34
2022-11-29T19:43:52.442Z,102164.84
2022-11-29T19:46:21.746Z,102168.19
2022-11-29T19:48:49.042Z,102168.94
2022-11-29T19:51:18.909Z,102164.16
2022-11-29T19:53:46.915Z,102169.25
2022-11-29T19:56:17.363Z,102163.81
2022-11-29T19:58:44.377Z,102166.53
2022-11-29T20:01:17.347Z,102168.19
2022-11-29T20:03:45.076Z,102171.59
2022-11-29T20:06:13.470Z,102176.56
2022-11-29T20:08:40.452Z,102178.13
2022-11-29T20:11:18.997Z,102181.88
2022-11-29T20:13:47.751Z,102185.81
2022-11-29T20:16:18.139Z,102176.81
2022-11-29T20:18:50.647Z,102179.72
2022-11-29T20:21:22.042Z,102190.78
2022-11-29T20:23:48.943Z,102187.88
2022-11-29T20:26:18.290Z,102195.00
2022-11-29T20:28:46.295Z,102191.44
2022-11-29T20:31:21.307Z,102199.88
2022-11-29T20:33:48.838Z,102190.03
2022-11-29T20:36:39.943Z,102194.06
2022-11-29T20:39:36.381Z,102198.84
2022-11-29T20:42:11.910Z,102200.72
2022-11-29T20:44:46.180Z,102198.38
2022-11-29T20:47:24.378Z,102195.09
2022-11-29T20:49:51.325Z,102198.84
2022-11-29T20:52:36.537Z,102197.16
2022-11-29T20:55:04.569Z,102193.13
2022-11-29T20:57:31.119Z,102198.38
2022-11-29T20:59:57.627Z,102200.06
2022-11-29T21:02:24.765Z,102199.88
2022-11-29T21:04:51.537Z,102201.94
2022-11-29T21:07:18.217Z,102205.31
2022-11-29T21:09:45.148Z,102208.22
2022-11-29T21:12:12.259Z,102212.81
2022-11-29T21:14:38.998Z,102207.38
2022-11-29T21:17:05.799Z,102208.41
2022-11-29T21:19:32.488Z,102205.69
2022-11-29T21:22:14.464Z,102209.41
2022-11-29T21:25:15.749Z,102213.47
2022-11-29T21:27:42.506Z,102209.03
2022-11-29T21:30:21.114Z,102211.59
2022-11-29T21:32:48.149Z,102212.44
2022-11-29T21:35:15.064Z,102214.97
2022-11-29T21:37:42.912Z,102214.97
2022-11-29T21:40:10.919Z,102217.50
2022-11-29T21:42:37.961Z,102221.91
2022-11-29T21:45:08.233Z,102210.94
2022-11-29T21:47:39.879Z,102222.94
2022-11-29T21:50:07.147Z,102218.34
2022-11-29T21:52:33.747Z,102220.41
2022-11-29T21:55:00.235Z,102218.50
2022-11-29T21:57:26.737Z,102221.22
2022-11-29T21:59:53.681Z,102222.63
2022-11-29T22:02:20.533Z,102216.84
2022-11-29T22:04:47.298Z,102218.03
2022-11-29T22:07:13.896Z,102219.38
2022-11-29T22:09:40.418Z,102218.34
2022-11-29T22:12:31.795Z,102218.50
2022-11-29T22:14:53.462Z,102221.22
2022-11-29T22:17:19.919Z,102227.34
2022-11-29T22:19:46.444Z,102227.34
2022-11-29T22:22:13.173Z,102227.97
2022-11-29T22:24:39.626Z,102207.84
2022-11-29T22:27:06.332Z,102227.97
2022-11-29T22:29:32.925Z,102221.22
2022-11-29T22:32:01.031Z,102212.06
2022-11-29T22:34:28.077Z,102223.59
2022-11-29T22:36:54.822Z,102217.13
2022-11-29T22:39:22.530Z,102216.09
2022-11-29T22:41:53.845Z,102215.06
2022-11-29T22:44:21.507Z,102218.81
2022-11-29T22:46:48.116Z,102219.66
2022-11-29T22:49:14.761Z,102224.91
2022-11-29T22:51:41.308Z,102220.50
2022-11-29T22:54:10.335Z,102225.94
2022-11-29T22:56:39.230Z,102227.81
2022-11-29T22:59:06.016Z,102225.94
2022-11-29T23:01:34.746Z,102219.19
2022-11-29T23:04:04.056Z,102235.59
2022-11-29T23:06:36.777Z,102241.88
2022-11-29T23:09:11.900Z,102242.72
2022-11-29T23:11:38.754Z,102243.56
2022-11-29T23:14:05.223Z,102238.13
2022-11-29T23:16:32.803Z,102238.31
2022-11-29T23:19:00.299Z,102246.94
2022-11-29T23:21:29.882Z,102242.56
2022-11-29T23:23:57.210Z,102238.13
2022-11-29T23:26:37.263Z,102243.19
2022-11-29T23:29:05.454Z,102237.47
2022-11-29T23:31:32.687Z,102245.91
2022-11-29T23:33:59.179Z,102244.88
2022-11-29T23:36:25.849Z,102246.56
2022-11-29T23:38:52.455Z,102243.19
2022-11-29T23:41:19.274Z,102249.94
2022-11-29T23:43:45.938Z,102241.78
2022-11-29T23:46:16.309Z,102252.66
2022-11-29T23:48:43.875Z,102238.22
2022-11-29T23:51:11.081Z,102252.50
2022-11-29T23:53:37.806Z,102240.78
2022-11-29T23:56:12.073Z,102251.66
2022-11-29T23:58:39.099Z,102249.56
